createdAt,value
2022-08-27T00:00:34.206Z,6.67
2022-08-27T00:03:02.722Z,8.00
2022-08-27T00:05:29.826Z,7.10
2022-08-27T00:07:56.689Z,7.13
2022-08-27T00:10:25.874Z,7.80
2022-08-27T00:12:53.777Z,7.57
2022-08-27T00:15:20.708Z,7.67
2022-08-27T00:17:48.187Z,7.70
2022-08-27T00:20:17.826Z,8.77
2022-08-27T00:22:45.023Z,8.10
2022-08-27T00:25:12.847Z,8.37
2022-08-27T00:27:40.310Z,8.50
2022-08-27T00:30:12.965Z,7.47
2022-08-27T00:32:41.220Z,8.17
2022-08-27T00:35:09.323Z,8.33
2022-08-27T00:37:36.727Z,8.70
2022-08-27T00:40:06.604Z,8.70
2022-08-27T00:42:33.692Z,7.70
2022-08-27T00:45:01.138Z,7.63
2022-08-27T00:47:31.718Z,8.30
2022-08-27T00:50:06.845Z,8.40
2022-08-27T00:52:35.567Z,7.50
2022-08-27T00:55:18.634Z,7.87
2022-08-27T00:57:50.345Z,8.30
2022-08-27T01:00:19.069Z,8.00
2022-08-27T01:02:47.617Z,7.50
2022-08-27T01:05:21.684Z,8.80
2022-08-27T01:07:51.749Z,9.13
2022-08-27T01:10:21.935Z,8.70
2022-08-27T01:12:53.782Z,8.13
2022-08-27T01:15:23.297Z,8.07
2022-08-27T01:17:51.010Z,8.67
2022-08-27T01:20:29.052Z,8.50
2022-08-27T01:23:18.670Z,8.07
2022-08-27T01:25:46.126Z,8.10
2022-08-27T01:28:14.501Z,8.20
2022-08-27T01:30:41.918Z,8.27
2022-08-27T01:33:16.851Z,7.87
2022-08-27T01:35:46.253Z,8.43
2022-08-27T01:38:30.428Z,8.83
2022-08-27T01:41:00.447Z,8.40
2022-08-27T01:43:29.205Z,8.13
2022-08-27T01:45:56.086Z,7.77
2022-08-27T01:48:23.284Z,8.17
2022-08-27T01:50:50.725Z,8.20
2022-08-27T01:53:27.563Z,7.87
2022-08-27T01:55:55.385Z,7.53
2022-08-27T01:58:27.894Z,8.07
2022-08-27T02:01:00.760Z,8.17
2022-08-27T02:03:27.793Z,7.10
2022-08-27T02:05:55.025Z,7.27
2022-08-27T02:08:22.018Z,7.17
2022-08-27T02:10:50.013Z,7.50
2022-08-27T02:13:17.748Z,7.10
2022-08-27T02:15:45.093Z,7.60
2022-08-27T02:18:12.445Z,8.90
2022-08-27T02:20:39.945Z,8.23
2022-08-27T02:23:07.266Z,8.00
2022-08-27T02:25:34.903Z,8.47
2022-08-27T02:28:02.015Z,7.40
2022-08-27T02:30:32.078Z,7.97
2022-08-27T02:33:01.042Z,7.70
2022-08-27T02:35:29.486Z,8.27
2022-08-27T02:37:57.038Z,7.60
2022-08-27T02:40:25.095Z,8.23
2022-08-27T02:42:52.518Z,8.73
2022-08-27T02:45:20.849Z,6.60
2022-08-27T02:47:48.638Z,6.77
2022-08-27T02:50:16.199Z,7.17
2022-08-27T02:52:45.361Z,6.97
2022-08-27T02:55:14.513Z,7.47
2022-08-27T02:57:44.587Z,7.63
2022-08-27T03:00:14.325Z,8.00
2022-08-27T03:02:41.582Z,6.97
2022-08-27T03:05:09.735Z,7.70
2022-08-27T03:07:37.365Z,7.43
2022-08-27T03:10:05.536Z,7.80
2022-08-27T03:12:34.312Z,7.83
2022-08-27T03:15:01.266Z,9.17
2022-08-27T03:17:46.508Z,7.23
2022-08-27T03:20:13.524Z,8.13
2022-08-27T03:22:40.838Z,8.03
2022-08-27T03:25:09.029Z,7.77
2022-08-27T03:27:36.090Z,7.83
2022-08-27T03:30:11.283Z,6.73
2022-08-27T03:32:39.436Z,7.33
2022-08-27T03:35:06.702Z,6.80
2022-08-27T03:37:33.670Z,7.67
2022-08-27T03:40:00.597Z,7.20
2022-08-27T03:42:27.922Z,6.87
2022-08-27T03:44:54.801Z,7.37
2022-08-27T03:47:23.720Z,7.13
2022-08-27T03:49:50.758Z,8.27
2022-08-27T03:52:17.851Z,6.57
2022-08-27T03:54:45.594Z,7.53
2022-08-27T03:57:12.746Z,8.43
2022-08-27T03:59:39.662Z,7.80
2022-08-27T04:02:06.913Z,8.50
2022-08-27T04:04:34.239Z,7.23
2022-08-27T04:07:01.126Z,7.33
2022-08-27T04:09:28.277Z,7.20
2022-08-27T04:11:55.314Z,7.60
2022-08-27T04:14:26.791Z,7.60
2022-08-27T04:16:56.006Z,7.73
2022-08-27T04:19:27.240Z,7.50
2022-08-27T04:21:58.331Z,7.73
2022-08-27T04:24:25.185Z,7.60
2022-08-27T04:26:52.095Z,7.37
2022-08-27T04:29:18.953Z,7.77
2022-08-27T04:31:45.943Z,6.97
2022-08-27T04:34:12.797Z,7.10
2022-08-27T04:36:39.882Z,6.37
2022-08-27T04:39:06.717Z,7.90
2022-08-27T04:41:34.342Z,7.70
2022-08-27T04:44:07.663Z,7.70
2022-08-27T04:46:39.574Z,6.30
2022-08-27T04:49:10.326Z,7.90
2022-08-27T04:51:39.352Z,7.77
2022-08-27T04:54:07.324Z,7.30
2022-08-27T04:56:35.921Z,7.80
2022-08-27T04:59:05.386Z,7.97
2022-08-27T05:01:32.682Z,7.90
2022-08-27T05:03:59.860Z,8.50
2022-08-27T05:06:26.886Z,7.80
2022-08-27T05:08:54.503Z,7.73
2022-08-27T05:11:23.684Z,6.97
2022-08-27T05:13:51.196Z,7.63
2022-08-27T05:16:22.028Z,7.60
2022-08-27T05:18:50.913Z,7.10
2022-08-27T05:21:23.703Z,7.27
2022-08-27T05:23:51.869Z,7.00
2022-08-27T05:26:19.217Z,7.87
2022-08-27T05:28:46.419Z,7.20
2022-08-27T05:31:14.962Z,6.37
2022-08-27T05:33:43.246Z,6.97
2022-08-27T05:36:17.874Z,6.73
2022-08-27T05:38:44.837Z,6.57
2022-08-27T05:41:15.102Z,6.80
2022-08-27T05:43:47.744Z,6.27
2022-08-27T05:46:19.025Z,7.27
2022-08-27T05:48:46.768Z,6.80
2022-08-27T05:51:19.759Z,7.20
2022-08-27T05:53:55.502Z,6.77
2022-08-27T05:56:24.978Z,7.00
2022-08-27T05:59:10.381Z,7.13
2022-08-27T06:01:40.932Z,6.63
2022-08-27T06:04:09.467Z,7.43
2022-08-27T06:06:38.453Z,6.97
2022-08-27T06:09:06.529Z,6.43
2022-08-27T06:11:33.874Z,7.30
2022-08-27T06:14:00.771Z,7.30
2022-08-27T06:16:28.087Z,5.90
2022-08-27T06:18:57.326Z,6.27
2022-08-27T06:21:25.073Z,7.20
2022-08-27T06:23:53.982Z,6.60
2022-08-27T06:26:23.190Z,6.60
2022-08-27T06:28:50.665Z,7.23
2022-08-27T06:31:21.265Z,6.60
2022-08-27T06:33:50.364Z,7.17
2022-08-27T06:36:22.914Z,6.70
2022-08-27T06:38:53.034Z,6.70
2022-08-27T06:41:23.895Z,6.10
2022-08-27T06:43:52.021Z,6.40
2022-08-27T06:46:22.223Z,6.20
2022-08-27T06:48:53.060Z,6.10
2022-08-27T06:51:26.354Z,5.70
2022-08-27T06:53:55.675Z,6.77
2022-08-27T06:56:22.914Z,7.20
2022-08-27T06:58:57.004Z,7.23
2022-08-27T07:01:28.011Z,5.87
2022-08-27T07:03:59.833Z,5.97
2022-08-27T07:06:29.456Z,7.00
2022-08-27T07:08:59.837Z,5.77
2022-08-27T07:11:28.602Z,6.63
2022-08-27T07:13:56.351Z,7.97
2022-08-27T07:16:24.935Z,10.40
2022-08-27T07:18:53.583Z,10.50
2022-08-27T07:21:21.749Z,9.40
2022-08-27T07:23:50.697Z,8.10
2022-08-27T07:26:19.428Z,7.90
2022-08-27T07:28:47.726Z,6.90
2022-08-27T07:31:19.089Z,7.93
2022-08-27T07:33:52.658Z,6.50
2022-08-27T07:36:21.224Z,6.73
2022-08-27T07:38:56.873Z,7.07
2022-08-27T07:41:32.482Z,6.40
2022-08-27T07:44:19.287Z,6.63
2022-08-27T07:46:48.625Z,6.60
2022-08-27T07:49:19.279Z,6.87
2022-08-27T07:51:46.795Z,5.63
2022-08-27T07:54:13.943Z,5.83
2022-08-27T07:56:41.159Z,6.13
2022-08-27T07:59:08.325Z,5.50
2022-08-27T08:01:36.058Z,5.90
2022-08-27T08:04:03.181Z,6.20
2022-08-27T08:06:30.246Z,6.10
2022-08-27T08:08:58.694Z,6.37
2022-08-27T08:11:26.271Z,5.70
2022-08-27T08:13:53.169Z,5.90
2022-08-27T08:16:20.986Z,6.30
2022-08-27T08:18:47.858Z,5.97
2022-08-27T08:21:15.178Z,6.10
2022-08-27T08:23:42.811Z,5.77
2022-08-27T08:26:12.122Z,6.17
2022-08-27T08:28:40.163Z,7.03
2022-08-27T08:31:07.906Z,6.70
2022-08-27T08:33:35.288Z,6.33
2022-08-27T08:36:09.997Z,6.20
2022-08-27T08:38:38.025Z,5.70
2022-08-27T08:41:06.842Z,6.03
2022-08-27T08:43:40.449Z,6.93
2022-08-27T08:46:22.545Z,6.30
2022-08-27T08:48:56.055Z,5.80
2022-08-27T08:51:29.890Z,6.17
2022-08-27T08:54:14.350Z,5.40
2022-08-27T08:57:06.011Z,6.03
2022-08-27T08:59:39.992Z,7.13
2022-08-27T09:02:13.160Z,6.07
2022-08-27T09:04:42.342Z,6.90
2022-08-27T09:07:33.315Z,6.77
2022-08-27T09:10:18.352Z,5.93
2022-08-27T09:12:45.898Z,6.00
2022-08-27T09:15:17.340Z,6.80
2022-08-27T09:17:45.474Z,6.43
2022-08-27T09:20:14.043Z,6.37
2022-08-27T09:23:15.377Z,6.30
2022-08-27T09:25:44.534Z,6.57
2022-08-27T09:28:33.066Z,7.17
2022-08-27T09:31:07.507Z,7.20
2022-08-27T09:33:44.427Z,6.10
2022-08-27T09:36:23.794Z,6.33
2022-08-27T09:39:00.385Z,5.90
2022-08-27T09:41:33.385Z,6.47
2022-08-27T09:44:12.151Z,6.60
2022-08-27T09:46:39.049Z,5.93
2022-08-27T09:49:17.571Z,6.10
2022-08-27T09:51:46.695Z,7.10
2022-08-27T09:54:39.609Z,6.87
2022-08-27T09:57:09.034Z,7.57
2022-08-27T09:59:50.443Z,7.10
2022-08-27T10:02:23.931Z,6.90
2022-08-27T10:05:01.398Z,6.77
2022-08-27T10:07:56.718Z,6.90
2022-08-27T10:10:37.159Z,7.13
2022-08-27T10:13:18.566Z,7.57
2022-08-27T10:15:49.603Z,7.50
2022-08-27T10:18:31.711Z,8.10
2022-08-27T10:21:24.175Z,7.60
2022-08-27T10:23:58.275Z,7.80
2022-08-27T10:26:34.046Z,7.10
2022-08-27T10:29:19.956Z,6.43
2022-08-27T10:32:06.298Z,7.80
2022-08-27T10:34:57.203Z,7.90
2022-08-27T10:37:56.481Z,6.00
2022-08-27T10:40:44.917Z,7.03
2022-08-27T10:43:14.522Z,7.70
2022-08-27T10:45:50.550Z,7.10
2022-08-27T10:48:55.664Z,6.93
2022-08-27T10:51:31.478Z,6.53
2022-08-27T10:54:31.207Z,6.80
2022-08-27T10:57:45.367Z,7.30
2022-08-27T11:00:16.064Z,7.10
2022-08-27T11:02:45.226Z,6.37
2022-08-27T11:05:17.195Z,5.87
2022-08-27T11:07:53.959Z,6.10
2022-08-27T11:10:26.486Z,5.90
2022-08-27T11:12:56.631Z,5.40
2022-08-27T11:15:30.852Z,5.10
2022-08-27T11:18:06.078Z,5.37
2022-08-27T11:21:02.286Z,5.50
2022-08-27T11:23:53.095Z,4.50
2022-08-27T11:26:20.221Z,5.97
2022-08-27T11:28:57.271Z,5.27
2022-08-27T11:32:02.734Z,5.50
2022-08-27T11:34:40.028Z,6.10
2022-08-27T11:37:24.352Z,5.07
2022-08-27T11:39:57.393Z,5.10
2022-08-27T11:42:37.033Z,5.40
2022-08-27T11:45:08.758Z,5.70
2022-08-27T11:47:35.741Z,4.70
2022-08-27T11:50:12.464Z,5.60
2022-08-27T11:52:41.868Z,5.63
2022-08-27T11:55:20.903Z,4.83
2022-08-27T11:58:07.425Z,5.07
2022-08-27T12:00:38.184Z,5.23
2022-08-27T12:03:19.286Z,5.30
2022-08-27T12:05:49.955Z,6.03
2022-08-27T12:08:22.973Z,6.03
2022-08-27T12:11:17.176Z,7.10
2022-08-27T12:14:12.531Z,6.20
2022-08-27T12:16:57.549Z,6.23
2022-08-27T12:19:45.994Z,6.40
2022-08-27T12:22:31.594Z,6.40
2022-08-27T12:24:59.166Z,4.97
2022-08-27T12:27:32.402Z,6.07
2022-08-27T12:30:22.444Z,6.10
2022-08-27T12:32:52.607Z,5.80
2022-08-27T12:35:32.766Z,5.07
2022-08-27T12:38:17.111Z,5.00
2022-08-27T12:40:54.555Z,5.20
2022-08-27T12:43:29.259Z,5.50
2022-08-27T12:46:08.471Z,6.03
2022-08-27T12:48:55.842Z,5.73
2022-08-27T12:51:27.222Z,5.33
2022-08-27T12:53:59.738Z,6.23
2022-08-27T12:56:44.327Z,7.03
2022-08-27T12:59:32.634Z,6.03
2022-08-27T13:02:21.280Z,6.50
2022-08-27T13:04:48.744Z,5.70
2022-08-27T13:07:38.024Z,6.50
2022-08-27T13:10:18.869Z,6.00
2022-08-27T13:12:47.959Z,6.03
2022-08-27T13:15:17.163Z,6.50
2022-08-27T13:17:46.591Z,6.80
2022-08-27T13:20:22.017Z,6.20
2022-08-27T13:22:50.022Z,6.90
2022-08-27T13:25:31.551Z,6.30
2022-08-27T13:28:07.936Z,6.33
2022-08-27T13:30:38.347Z,6.50
2022-08-27T13:33:08.118Z,7.50
2022-08-27T13:35:35.562Z,6.37
2022-08-27T13:38:04.517Z,6.23
2022-08-27T13:40:37.202Z,7.27
2022-08-27T13:43:10.820Z,6.43
2022-08-27T13:45:42.245Z,6.00
2022-08-27T13:48:11.663Z,6.93
2022-08-27T13:50:47.699Z,5.80
2022-08-27T13:53:39.288Z,5.37
2022-08-27T13:56:06.195Z,5.20
2022-08-27T13:58:34.809Z,4.80
2022-08-27T14:01:14.423Z,4.70
2022-08-27T14:04:00.478Z,5.50
2022-08-27T14:06:41.862Z,5.93
2022-08-27T14:09:18.642Z,7.27
2022-08-27T14:11:47.198Z,7.30
2022-08-27T14:14:16.753Z,7.37
2022-08-27T14:16:43.749Z,7.20
2022-08-27T14:19:26.691Z,7.20
2022-08-27T14:21:53.839Z,7.40
2022-08-27T14:24:20.859Z,7.30
2022-08-27T14:26:52.729Z,7.37
2022-08-27T14:29:20.642Z,7.20
2022-08-27T14:31:48.052Z,7.30
2022-08-27T14:34:14.960Z,7.63
2022-08-27T14:36:43.082Z,7.67
2022-08-27T14:39:11.689Z,6.70
2022-08-27T14:41:38.792Z,7.50
2022-08-27T14:44:07.174Z,8.20
2022-08-27T14:47:26.734Z,6.53
2022-08-27T14:49:30.778Z,7.10
2022-08-27T14:51:57.726Z,6.47
2022-08-27T14:54:29.157Z,7.07
2022-08-27T14:57:02.250Z,6.13
2022-08-27T14:59:29.621Z,5.60
2022-08-27T15:01:59.108Z,6.27
2022-08-27T15:04:27.391Z,5.80
2022-08-27T15:06:55.350Z,6.17
2022-08-27T15:09:22.624Z,5.67
2022-08-27T15:11:50.179Z,6.70
2022-08-27T15:14:23.825Z,6.97
2022-08-27T15:16:50.798Z,5.27
2022-08-27T15:19:17.669Z,4.90
2022-08-27T15:21:48.856Z,4.83
2022-08-27T15:24:25.953Z,5.57
2022-08-27T15:26:54.811Z,5.37
2022-08-27T15:29:21.654Z,6.07
2022-08-27T15:31:48.583Z,5.47
2022-08-27T15:34:15.450Z,4.87
2022-08-27T15:36:43.347Z,3.70
2022-08-27T15:39:10.439Z,4.20
2022-08-27T15:42:05.036Z,3.53
2022-08-27T15:44:27.130Z,4.43
2022-08-27T15:46:53.990Z,4.33
2022-08-27T15:49:20.889Z,4.20
2022-08-27T15:51:47.803Z,3.87
2022-08-27T15:54:14.681Z,3.23
2022-08-27T15:56:41.520Z,3.70
2022-08-27T15:59:09.698Z,4.50
2022-08-27T16:01:37.655Z,3.23
2022-08-27T16:04:06.167Z,3.93
2022-08-27T16:06:34.875Z,4.43
2022-08-27T16:09:02.419Z,4.10
2022-08-27T16:11:29.341Z,3.90
2022-08-27T16:13:56.321Z,3.90
2022-08-27T16:16:28.265Z,3.77
2022-08-27T16:18:55.385Z,3.73
2022-08-27T16:21:22.325Z,3.70
2022-08-27T16:23:49.615Z,3.53
2022-08-27T16:26:16.797Z,3.40
2022-08-27T16:28:44.751Z,4.30
2022-08-27T16:31:13.651Z,3.97
2022-08-27T16:33:44.234Z,4.30
2022-08-27T16:36:11.589Z,4.77
2022-08-27T16:38:38.727Z,4.40
2022-08-27T16:41:06.442Z,4.27
2022-08-27T16:43:33.641Z,4.43
2022-08-27T16:46:01.431Z,4.50
2022-08-27T16:48:48.138Z,4.30
2022-08-27T16:51:25.647Z,4.57
2022-08-27T16:53:52.957Z,4.40
2022-08-27T16:56:21.042Z,4.60
2022-08-27T16:58:53.347Z,4.50
2022-08-27T17:01:23.033Z,5.80
2022-08-27T17:04:09.021Z,5.00
2022-08-27T17:06:39.710Z,4.43
2022-08-27T17:09:07.494Z,4.70
2022-08-27T17:11:35.745Z,4.70
2022-08-27T17:14:03.505Z,4.73
2022-08-27T17:16:33.311Z,5.07
2022-08-27T17:19:00.871Z,5.30
2022-08-27T17:21:30.091Z,5.53
2022-08-27T17:23:59.457Z,4.83
2022-08-27T17:26:26.610Z,4.60
2022-08-27T17:28:53.811Z,5.00
2022-08-27T17:31:28.384Z,5.40
2022-08-27T17:33:59.295Z,3.97
2022-08-27T17:36:28.959Z,4.13
2022-08-27T17:38:56.916Z,4.80
2022-08-27T17:41:33.691Z,4.70
2022-08-27T17:44:09.563Z,4.90
2022-08-27T17:46:36.934Z,5.53
2022-08-27T17:49:04.074Z,4.70
2022-08-27T17:51:31.021Z,4.53
2022-08-27T17:54:01.169Z,4.40
2022-08-27T17:56:29.226Z,4.30
2022-08-27T17:58:56.524Z,4.90
2022-08-27T18:01:30.733Z,4.90
2022-08-27T18:03:58.754Z,4.97
2022-08-27T18:06:27.935Z,4.40
2022-08-27T18:08:54.960Z,4.30
2022-08-27T18:11:22.060Z,4.03
2022-08-27T18:13:53.032Z,4.43
2022-08-27T18:16:21.055Z,4.20
2022-08-27T18:18:48.378Z,4.63
2022-08-27T18:21:15.706Z,4.40
2022-08-27T18:23:53.491Z,4.20
2022-08-27T18:26:22.218Z,5.17
2022-08-27T18:28:49.974Z,4.80
2022-08-27T18:31:20.945Z,4.97
2022-08-27T18:33:48.163Z,4.37
2022-08-27T18:36:16.004Z,4.60
2022-08-27T18:38:43.143Z,4.90
2022-08-27T18:41:10.481Z,4.43
2022-08-27T18:43:38.361Z,4.40
2022-08-27T18:46:06.733Z,4.43
2022-08-27T18:48:34.393Z,4.73
2022-08-27T18:51:05.319Z,4.60
2022-08-27T18:53:36.080Z,4.77
2022-08-27T18:56:05.250Z,4.90
2022-08-27T18:58:32.279Z,5.20
2022-08-27T19:01:02.124Z,5.30
2022-08-27T19:03:33.471Z,5.70
2022-08-27T19:06:00.622Z,5.40
2022-08-27T19:08:28.901Z,4.90
2022-08-27T19:10:55.971Z,5.43
2022-08-27T19:13:23.339Z,4.97
2022-08-27T19:15:55.328Z,5.50
2022-08-27T19:18:25.424Z,4.60
2022-08-27T19:20:52.529Z,5.87
2022-08-27T19:23:22.241Z,5.50
2022-08-27T19:25:51.276Z,5.40
2022-08-27T19:28:23.178Z,5.30
2022-08-27T19:30:50.447Z,5.37
2022-08-27T19:33:17.833Z,5.23
2022-08-27T19:35:45.170Z,5.00
2022-08-27T19:38:13.993Z,4.90
2022-08-27T19:40:41.987Z,5.50
2022-08-27T19:43:09.503Z,5.30
2022-08-27T19:45:40.399Z,5.80
2022-08-27T19:48:08.785Z,7.27
2022-08-27T19:50:35.985Z,6.57
2022-08-27T19:53:03.307Z,5.43
2022-08-27T19:55:30.269Z,5.10
2022-08-27T19:57:57.643Z,5.83
2022-08-27T20:00:27.781Z,5.40
2022-08-27T20:02:55.736Z,5.47
2022-08-27T20:05:23.063Z,5.67
2022-08-27T20:07:53.278Z,5.80
2022-08-27T20:10:25.803Z,5.63
2022-08-27T20:13:03.358Z,6.40
2022-08-27T20:15:30.354Z,5.97
2022-08-27T20:17:59.368Z,5.20
2022-08-27T20:20:28.727Z,5.30
2022-08-27T20:22:56.162Z,6.50
2022-08-27T20:25:23.670Z,5.90
2022-08-27T20:27:51.814Z,6.27
2022-08-27T20:30:22.804Z,6.90
2022-08-27T20:32:50.285Z,6.07
2022-08-27T20:35:17.898Z,6.80
2022-08-27T20:37:46.273Z,5.03
2022-08-27T20:40:23.730Z,5.83
2022-08-27T20:42:50.800Z,5.67
2022-08-27T20:45:18.981Z,5.17
2022-08-27T20:47:48.102Z,6.30
2022-08-27T20:50:16.858Z,6.20
2022-08-27T20:52:45.002Z,5.87
2022-08-27T20:55:12.771Z,5.83
2022-08-27T20:58:03.218Z,5.47
2022-08-27T21:00:35.647Z,6.10
2022-08-27T21:03:02.727Z,6.10
2022-08-27T21:05:34.156Z,6.10
2022-08-27T21:08:05.594Z,6.90
2022-08-27T21:10:33.237Z,6.03
2022-08-27T21:13:04.363Z,6.20
2022-08-27T21:15:31.998Z,5.50
2022-08-27T21:17:58.850Z,6.20
2022-08-27T21:20:25.762Z,5.97
2022-08-27T21:22:52.747Z,6.10
2022-08-27T21:25:19.883Z,6.07
2022-08-27T21:27:46.748Z,6.00
2022-08-27T21:30:13.995Z,5.97
2022-08-27T21:32:41.711Z,6.13
2022-08-27T21:35:08.974Z,6.17
2022-08-27T21:37:36.604Z,6.77
2022-08-27T21:40:05.121Z,5.77
2022-08-27T21:42:32.204Z,5.87
2022-08-27T21:44:59.066Z,6.07
2022-08-27T21:47:26.027Z,6.07
2022-08-27T21:49:53.003Z,6.30
2022-08-27T21:52:19.863Z,6.20
2022-08-27T21:54:46.730Z,6.07
2022-08-27T21:57:15.720Z,6.93
2022-08-27T21:59:46.727Z,6.30
2022-08-27T22:02:38.343Z,6.13
2022-08-27T22:05:02.346Z,6.90
2022-08-27T22:07:29.214Z,6.97
2022-08-27T22:09:56.097Z,7.47
2022-08-27T22:12:23.015Z,7.43
2022-08-27T22:14:49.884Z,8.10
2022-08-27T22:17:16.854Z,5.97
2022-08-27T22:19:43.749Z,6.67
2022-08-27T22:22:10.854Z,6.67
2022-08-27T22:24:37.785Z,6.40
2022-08-27T22:27:04.833Z,6.30
2022-08-27T22:29:31.881Z,6.20
2022-08-27T22:31:58.875Z,6.23
2022-08-27T22:34:25.914Z,5.87
2022-08-27T22:36:53.028Z,5.70
2022-08-27T22:39:20.162Z,6.20
2022-08-27T22:41:49.201Z,5.57
2022-08-27T22:44:16.602Z,6.53
2022-08-27T22:46:43.541Z,5.90
2022-08-27T22:49:10.486Z,7.53
2022-08-27T22:51:37.386Z,6.17
2022-08-27T22:54:04.425Z,6.20
2022-08-27T22:56:31.863Z,6.47
2022-08-27T22:58:58.886Z,6.23
2022-08-27T23:01:25.895Z,6.20
2022-08-27T23:03:54.294Z,6.23
2022-08-27T23:06:21.453Z,6.73
2022-08-27T23:08:48.374Z,5.77
2022-08-27T23:11:16.081Z,5.80
2022-08-27T23:13:42.946Z,6.70
2022-08-27T23:16:10.045Z,6.30
2022-08-27T23:18:37.091Z,5.63
2022-08-27T23:21:06.072Z,6.10
2022-08-27T23:23:34.227Z,5.40
2022-08-27T23:26:19.419Z,4.73
2022-08-27T23:28:46.626Z,5.60
2022-08-27T23:31:14.532Z,5.17
2022-08-27T23:33:42.306Z,5.37
2022-08-27T23:36:10.053Z,6.27
2022-08-27T23:38:37.543Z,5.80
2022-08-27T23:41:05.733Z,5.93
2022-08-27T23:43:32.586Z,5.50
2022-08-27T23:45:59.467Z,5.97
2022-08-27T23:48:26.818Z,6.13
2022-08-27T23:50:53.711Z,5.80
2022-08-27T23:53:20.632Z,6.50
2022-08-27T23:55:47.763Z,5.50
2022-08-27T23:58:14.922Z,5.80
